createdAt,value
2023-04-02T00:00:52.355Z,0
2023-04-02T00:01:44.960Z,0
2023-04-02T00:02:39.002Z,0
2023-04-02T00:03:22.277Z,0
2023-04-02T00:04:24.500Z,0
2023-04-02T00:05:33.976Z,0
2023-04-02T00:06:27.736Z,0
2023-04-02T00:07:56.719Z,0
2023-04-02T00:09:27.806Z,0
2023-04-02T00:10:33.623Z,0
2023-04-02T00:11:28.334Z,0
2023-04-02T00:12:22.184Z,0
2023-04-02T00:15:32.827Z,0
2023-04-02T00:17:07.283Z,0
2023-04-02T00:18:00.410Z,0
2023-04-02T00:18:47.441Z,0
2023-04-02T00:19:30.321Z,0
2023-04-02T00:20:35.753Z,0
2023-04-02T00:21:34.660Z,0
2023-04-02T00:22:29.571Z,0
2023-04-02T00:23:51.655Z,0
2023-04-02T00:24:43.798Z,0
2023-04-02T00:25:34.984Z,0
2023-04-02T00:26:29.510Z,0
2023-04-02T00:27:23.082Z,0
2023-04-02T00:28:31.472Z,0
2023-04-02T00:29:26.110Z,0
2023-04-02T00:31:19.495Z,0
2023-04-02T00:32:35.123Z,0
2023-04-02T00:33:33.566Z,0
2023-04-02T00:34:26.754Z,0
2023-04-02T00:35:39.900Z,0
2023-04-02T00:36:28.578Z,0
2023-04-02T00:37:21.269Z,0
2023-04-02T00:38:51.691Z,0
2023-04-02T00:39:44.761Z,0
2023-04-02T00:40:39.541Z,0
2023-04-02T00:41:30.231Z,0
2023-04-02T00:42:22.081Z,0
2023-04-02T00:43:32.687Z,0
2023-04-02T00:44:25.373Z,0
2023-04-02T00:45:57.272Z,0
2023-04-02T00:47:06.606Z,0
2023-04-02T00:48:35.442Z,0
2023-04-02T00:49:28.500Z,0
2023-04-02T00:52:22.675Z,0
2023-04-02T00:53:52.611Z,0
2023-04-02T00:55:41.277Z,0
2023-04-02T00:57:24.397Z,0
2023-04-02T00:58:33.633Z,0
2023-04-02T01:00:24.962Z,0
2023-04-02T01:19:47.543Z,0
2023-04-02T01:20:25.608Z,0
2023-04-02T01:22:08.740Z,0
2023-04-02T01:23:54.299Z,0
2023-04-02T01:24:47.290Z,0
2023-04-02T01:25:40.946Z,0
2023-04-02T01:26:33.172Z,0
2023-04-02T01:27:25.081Z,0
2023-04-02T01:28:30.967Z,0
2023-04-02T01:29:30.051Z,0
2023-04-02T01:30:23.153Z,0
2023-04-02T01:31:50.779Z,0
2023-04-02T01:32:44.485Z,0
2023-04-02T01:33:26.621Z,0
2023-04-02T01:34:30.620Z,0
2023-04-02T01:35:23.291Z,0
2023-04-02T01:36:33.784Z,0
2023-04-02T01:37:27.333Z,0
2023-04-02T01:38:20.301Z,0
2023-04-02T01:39:28.982Z,0
2023-04-02T01:40:41.104Z,0
2023-04-02T01:41:34.770Z,0
2023-04-02T01:42:28.090Z,0
2023-04-02T01:43:39.700Z,0
2023-04-02T01:45:24.410Z,0
2023-04-02T01:46:47.575Z,0
2023-04-02T01:47:45.800Z,0
2023-04-02T01:48:57.594Z,0
2023-04-02T01:49:31.135Z,0
2023-04-02T01:50:26.465Z,0
2023-04-02T01:51:37.625Z,0
2023-04-02T01:54:49.166Z,0
2023-04-02T01:55:42.156Z,0
2023-04-02T01:56:29.458Z,0
2023-04-02T01:59:34.772Z,0
2023-04-02T02:00:25.492Z,0
2023-04-02T02:01:21.820Z,0
2023-04-02T02:02:36.656Z,0
2023-04-02T02:03:40.220Z,0
2023-04-02T02:04:32.441Z,0
2023-04-02T02:05:25.348Z,0
2023-04-02T02:07:11.161Z,0
2023-04-02T02:08:23.398Z,0
2023-04-02T02:09:49.801Z,0
2023-04-02T02:11:38.583Z,0
2023-04-02T02:12:28.544Z,0
2023-04-02T02:13:21.436Z,0
2023-04-02T02:14:33.818Z,0
2023-04-02T02:16:20.989Z,0
2023-04-02T02:17:47.810Z,0
2023-04-02T02:19:34.166Z,0
2023-04-02T02:21:38.269Z,0
2023-04-02T02:22:32.311Z,0
2023-04-02T02:23:24.527Z,0
2023-04-02T02:24:30.947Z,0
2023-04-02T02:25:43.524Z,0
2023-04-02T02:26:38.771Z,0
2023-04-02T02:27:30.708Z,0
2023-04-02T02:28:21.978Z,0
2023-04-02T02:29:20.508Z,0
2023-04-02T02:30:28.718Z,0
2023-04-02T02:31:21.396Z,0
2023-04-02T02:32:48.568Z,0
2023-04-02T02:33:41.004Z,0
2023-04-02T02:34:32.986Z,0
2023-04-02T02:35:26.916Z,0
2023-04-02T02:37:32.546Z,0
2023-04-02T02:38:26.954Z,0
2023-04-02T02:39:52.348Z,0
2023-04-02T02:40:45.427Z,0
2023-04-02T02:41:32.653Z,0
2023-04-02T02:43:23.557Z,0
2023-04-02T02:45:11.388Z,0
2023-04-02T02:46:22.606Z,0
2023-04-02T02:48:41.962Z,0
2023-04-02T02:49:35.167Z,0
2023-04-02T02:50:28.208Z,0
2023-04-02T02:51:20.073Z,0
2023-04-02T02:52:28.201Z,0
2023-04-02T02:54:21.462Z,0
2023-04-02T02:55:46.698Z,0
2023-04-02T02:56:39.597Z,0
2023-04-02T02:57:21.382Z,0
2023-04-02T02:58:26.063Z,0
2023-04-02T02:59:37.911Z,0
2023-04-02T03:01:24.500Z,0
2023-04-02T03:02:52.224Z,0
2023-04-02T03:03:26.516Z,0
2023-04-02T03:04:39.405Z,0
2023-04-02T03:06:22.468Z,0
2023-04-02T03:07:38.949Z,0
2023-04-02T03:08:31.184Z,0
2023-04-02T03:09:26.074Z,0
2023-04-02T03:10:46.125Z,0
2023-04-02T03:11:44.057Z,0
2023-04-02T03:12:35.269Z,0
2023-04-02T03:13:25.501Z,0
2023-04-02T03:14:29.365Z,0
2023-04-02T03:15:51.175Z,0
2023-04-02T03:16:34.904Z,0
2023-04-02T03:17:58.685Z,0
2023-04-02T03:18:46.013Z,0
2023-04-02T03:19:43.198Z,0
2023-04-02T03:20:36.937Z,0
2023-04-02T03:21:30.060Z,0
2023-04-02T03:22:56.646Z,0
2023-04-02T03:23:32.018Z,0
2023-04-02T03:24:24.208Z,0
2023-04-02T03:25:48.687Z,0
2023-04-02T03:26:34.985Z,0
2023-04-02T03:27:36.358Z,0
2023-04-02T03:28:28.714Z,0
2023-04-02T03:29:51.406Z,0
2023-04-02T03:30:35.342Z,0
2023-04-02T03:31:24.069Z,0
2023-04-02T03:32:20.443Z,0
2023-04-02T03:33:55.619Z,0
2023-04-02T03:34:44.348Z,0
2023-04-02T03:35:34.479Z,0
2023-04-02T03:36:29.315Z,0
2023-04-02T03:37:37.056Z,0
2023-04-02T03:39:36.048Z,0
2023-04-02T03:40:54.314Z,0
2023-04-02T03:41:47.991Z,0
2023-04-02T03:42:25.686Z,0
2023-04-02T03:43:33.314Z,0
2023-04-02T03:44:25.125Z,0
2023-04-02T03:45:47.000Z,0
2023-04-02T03:46:29.007Z,0
2023-04-02T03:47:21.548Z,0
2023-04-02T03:48:27.518Z,0
2023-04-02T03:49:40.097Z,0
2023-04-02T03:50:32.718Z,0
2023-04-02T03:51:25.382Z,0
2023-04-02T03:52:40.578Z,0
2023-04-02T03:53:32.386Z,0
2023-04-02T03:54:26.287Z,0
2023-04-02T03:55:45.145Z,0
2023-04-02T03:56:43.197Z,0
2023-04-02T03:57:36.355Z,0
2023-04-02T03:58:27.646Z,0
2023-04-02T03:59:24.919Z,0
2023-04-02T04:00:38.143Z,0
2023-04-02T04:01:30.411Z,0
2023-04-02T04:02:25.031Z,0
2023-04-02T04:03:47.754Z,0
2023-04-02T04:04:40.448Z,0
2023-04-02T04:05:28.339Z,0
2023-04-02T04:07:41.492Z,0
2023-04-02T04:08:35.997Z,0
2023-04-02T04:09:27.849Z,0
2023-04-02T04:10:20.130Z,0
2023-04-02T04:11:35.295Z,0
2023-04-02T04:12:39.457Z,0
2023-04-02T04:13:30.837Z,0
2023-04-02T04:14:23.131Z,0
2023-04-02T04:15:38.519Z,0
2023-04-02T04:16:24.582Z,0
2023-04-02T04:17:24.880Z,0
2023-04-02T04:18:47.735Z,0
2023-04-02T04:19:41.650Z,0
2023-04-02T04:20:34.949Z,0
2023-04-02T04:22:30.161Z,0
2023-04-02T04:24:31.026Z,0
2023-04-02T04:25:23.319Z,0
2023-04-02T04:26:45.743Z,0
2023-04-02T04:27:24.032Z,0
2023-04-02T04:28:30.050Z,0
2023-04-02T04:29:22.191Z,0
2023-04-02T04:31:33.986Z,0
2023-04-02T04:32:25.585Z,0
2023-04-02T04:33:27.940Z,0
2023-04-02T04:34:41.205Z,0
2023-04-02T04:36:28.642Z,0
2023-04-02T04:37:19.789Z,0
2023-04-02T04:38:37.662Z,0
2023-04-02T04:39:32.087Z,0
2023-04-02T04:40:23.403Z,0
2023-04-02T04:41:46.496Z,0
2023-04-02T04:42:39.638Z,0
2023-04-02T04:43:30.496Z,0
2023-04-02T04:46:34.114Z,0
2023-04-02T04:47:28.726Z,0
2023-04-02T04:48:20.249Z,0
2023-04-02T04:49:43.719Z,0
2023-04-02T04:50:30.128Z,0
2023-04-02T04:52:22.032Z,0
2023-04-02T04:53:40.758Z,0
2023-04-02T04:54:33.979Z,0
2023-04-02T04:55:21.904Z,0
2023-04-02T04:56:35.115Z,0
2023-04-02T04:57:38.587Z,0
2023-04-02T04:58:33.472Z,-0
2023-04-02T04:59:26.935Z,0
2023-04-02T05:00:42.718Z,0
2023-04-02T05:01:25.701Z,0
2023-04-02T05:02:28.572Z,0
2023-04-02T05:03:21.333Z,0
2023-04-02T05:05:39.408Z,0
2023-04-02T05:06:30.088Z,0
2023-04-02T05:07:22.192Z,0
2023-04-02T05:08:39.941Z,0
2023-04-02T05:09:32.724Z,0
2023-04-02T05:10:25.609Z,0
2023-04-02T05:11:48.280Z,0
2023-04-02T05:12:24.608Z,0
2023-04-02T05:13:39.793Z,0
2023-04-02T05:14:27.461Z,0
2023-04-02T05:15:43.750Z,0
2023-04-02T05:16:38.203Z,0
2023-04-02T05:17:29.842Z,0
2023-04-02T05:18:22.730Z,0
2023-04-02T05:19:41.408Z,0
2023-04-02T05:20:39.301Z,0
2023-04-02T05:21:31.599Z,0
2023-04-02T05:22:22.516Z,0
2023-04-02T05:23:22.223Z,0
2023-04-02T05:24:34.306Z,0
2023-04-02T05:25:27.018Z,0
2023-04-02T05:26:48.596Z,0
2023-04-02T05:29:00.673Z,0
2023-04-02T05:29:26.987Z,0
2023-04-02T05:30:20.231Z,0
2023-04-02T05:31:39.183Z,0
2023-04-02T05:32:33.149Z,0
2023-04-02T05:33:24.508Z,0
2023-04-02T05:34:45.955Z,0
2023-04-02T05:35:31.245Z,0
2023-04-02T05:36:30.583Z,0
2023-04-02T05:37:25.581Z,0
2023-04-02T05:38:44.435Z,0
2023-04-02T05:39:37.725Z,0
2023-04-02T05:40:23.224Z,0
2023-04-02T05:41:21.752Z,0
2023-04-02T05:42:41.886Z,0
2023-04-02T05:43:38.718Z,0
2023-04-02T05:44:30.529Z,0
2023-04-02T05:45:20.583Z,0
2023-04-02T05:46:28.424Z,0
2023-04-02T05:47:33.113Z,0
2023-04-02T05:48:27.719Z,0
2023-04-02T05:49:46.572Z,0
2023-04-02T05:50:40.393Z,0
2023-04-02T05:51:31.899Z,0
2023-04-02T05:52:24.751Z,0
2023-04-02T05:53:44.611Z,0
2023-04-02T05:54:58.025Z,0
2023-04-02T05:55:31.438Z,0
2023-04-02T05:56:22.641Z,0
2023-04-02T05:57:39.493Z,0
2023-04-02T05:58:37.298Z,0
2023-04-02T06:00:24.457Z,0
2023-04-02T06:01:43.168Z,0
2023-04-02T06:02:34.828Z,0
2023-04-02T06:03:28.307Z,0
2023-04-02T06:04:20.291Z,0
2023-04-02T06:06:34.242Z,0
2023-04-02T06:07:25.680Z,0
2023-04-02T06:08:20.824Z,0
2023-04-02T06:10:31.032Z,0
2023-04-02T06:11:25.642Z,0
2023-04-02T06:12:44.804Z,0
2023-04-02T06:13:38.421Z,0
2023-04-02T06:14:26.358Z,0
2023-04-02T06:15:23.278Z,0
2023-04-02T06:16:43.073Z,0
2023-04-02T06:17:38.205Z,0
2023-04-02T06:20:32.471Z,0
2023-04-02T06:21:34.463Z,0
2023-04-02T06:22:27.881Z,0
2023-04-02T06:23:21.115Z,0
2023-04-02T06:24:41.050Z,0
2023-04-02T06:25:23.980Z,0
2023-04-02T06:26:25.472Z,0
2023-04-02T06:27:44.748Z,0
2023-04-02T06:28:37.352Z,0
2023-04-02T06:29:30.605Z,0
2023-04-02T06:31:27.390Z,0
2023-04-02T06:32:42.386Z,1
2023-04-02T06:33:31.520Z,0
2023-04-02T06:34:24.451Z,0
2023-04-02T06:35:43.145Z,0
2023-04-02T06:36:20.500Z,0
2023-04-02T06:37:27.947Z,0
2023-04-02T06:38:22.300Z,0
2023-04-02T06:39:41.144Z,1
2023-04-02T06:40:36.096Z,1
2023-04-02T06:41:54.772Z,1
2023-04-02T06:42:19.949Z,1
2023-04-02T06:43:39.534Z,1
2023-04-02T06:44:31.559Z,1
2023-04-02T06:45:26.797Z,2
2023-04-02T06:46:46.936Z,2
2023-04-02T06:48:32.895Z,2
2023-04-02T06:49:24.105Z,2
2023-04-02T06:50:43.359Z,2
2023-04-02T06:51:37.969Z,2
2023-04-02T06:52:29.152Z,2
2023-04-02T06:53:21.347Z,3
2023-04-02T06:55:38.571Z,3
2023-04-02T06:56:29.993Z,3
2023-04-02T06:57:21.461Z,3
2023-04-02T06:59:27.866Z,3
2023-04-02T07:00:25.471Z,3
2023-04-02T07:01:47.192Z,3
2023-04-02T07:02:41.452Z,3
2023-04-02T07:03:34.493Z,3
2023-04-02T07:04:25.860Z,3
2023-04-02T07:05:31.486Z,3
2023-04-02T07:06:38.361Z,4
2023-04-02T07:07:31.243Z,4
2023-04-02T07:08:24.275Z,4
2023-04-02T07:09:43.322Z,4
2023-04-02T07:10:25.150Z,4
2023-04-02T07:11:29.834Z,4
2023-04-02T07:12:24.971Z,4
2023-04-02T07:13:40.548Z,4
2023-04-02T07:14:34.904Z,4
2023-04-02T07:15:26.972Z,5
2023-04-02T07:16:20.591Z,5
2023-04-02T07:17:41.169Z,5
2023-04-02T07:18:34.152Z,5
2023-04-02T07:19:28.555Z,5
2023-04-02T07:20:19.839Z,6
2023-04-02T07:21:21.404Z,6
2023-04-02T07:22:33.108Z,6
2023-04-02T07:23:25.320Z,6
2023-04-02T07:24:45.628Z,6
2023-04-02T07:25:40.154Z,6
2023-04-02T07:26:31.226Z,6
2023-04-02T07:27:25.272Z,6
2023-04-02T07:28:42.626Z,6
2023-04-02T07:30:29.003Z,5
2023-04-02T07:31:20.755Z,5
2023-04-02T07:32:43.840Z,5
2023-04-02T07:33:30.143Z,5
2023-04-02T07:34:29.711Z,4
2023-04-02T07:35:22.610Z,4
2023-04-02T07:37:10.641Z,4
2023-04-02T07:38:24.806Z,3
2023-04-02T07:39:39.491Z,3
2023-04-02T07:40:39.122Z,3
2023-04-02T07:41:34.070Z,3
2023-04-02T07:42:27.170Z,3
2023-04-02T07:43:43.169Z,3
2023-04-02T07:44:27.075Z,3
2023-04-02T07:45:29.243Z,3
2023-04-02T07:46:23.546Z,4
2023-04-02T07:47:44.924Z,4
2023-04-02T07:48:37.895Z,4
2023-04-02T07:49:29.774Z,4
2023-04-02T07:50:23.115Z,4
2023-04-02T07:51:39.536Z,4
2023-04-02T07:52:32.833Z,4
2023-04-02T07:53:25.499Z,4
2023-04-02T07:54:49.517Z,4
2023-04-02T07:55:27.279Z,4
2023-04-02T07:56:34.489Z,5
2023-04-02T07:57:28.487Z,5
2023-04-02T07:58:21.288Z,5
2023-04-02T07:59:40.887Z,5
2023-04-02T08:00:29.648Z,5
2023-04-02T08:01:22.445Z,6
2023-04-02T08:02:44.123Z,5
2023-04-02T08:03:40.207Z,5
2023-04-02T08:04:56.043Z,5
2023-04-02T08:05:24.204Z,5
2023-04-02T08:06:21.607Z,5
2023-04-02T08:07:34.512Z,5
2023-04-02T08:08:26.456Z,4
2023-04-02T08:11:35.757Z,4
2023-04-02T08:12:28.561Z,4
2023-04-02T08:13:21.044Z,4
2023-04-02T08:14:38.451Z,4
2023-04-02T08:15:32.743Z,4
2023-04-02T08:16:23.870Z,4
2023-04-02T08:17:48.949Z,4
2023-04-02T08:18:42.570Z,4
2023-04-02T08:19:41.546Z,4
2023-04-02T08:20:25.661Z,4
2023-04-02T08:21:43.304Z,5
2023-04-02T08:22:36.774Z,5
2023-04-02T08:23:24.106Z,5
2023-04-02T08:24:21.007Z,4
2023-04-02T08:25:43.770Z,4
2023-04-02T08:27:04.389Z,4
2023-04-02T08:27:29.708Z,3
2023-04-02T08:28:25.017Z,3
2023-04-02T08:29:28.243Z,3
2023-04-02T08:30:31.510Z,3
2023-04-02T08:31:25.781Z,3
2023-04-02T08:32:49.417Z,4
2023-04-02T08:33:42.558Z,4
2023-04-02T08:34:21.686Z,3
2023-04-02T08:35:28.397Z,3
2023-04-02T08:37:35.364Z,4
2023-04-02T08:38:28.741Z,4
2023-04-02T08:39:21.718Z,4
2023-04-02T08:40:26.509Z,4
2023-04-02T08:42:02.282Z,4
2023-04-02T08:43:26.010Z,5
2023-04-02T08:44:41.218Z,5
2023-04-02T08:45:32.336Z,5
2023-04-02T08:46:27.941Z,5
2023-04-02T08:47:45.102Z,6
2023-04-02T08:48:44.593Z,6
2023-04-02T08:49:28.854Z,6
2023-04-02T08:50:29.950Z,6
2023-04-02T08:51:22.354Z,6
2023-04-02T08:52:36.506Z,6
2023-04-02T08:53:22.106Z,6
2023-04-02T08:54:26.053Z,4
2023-04-02T08:55:45.997Z,3
2023-04-02T08:56:30.225Z,3
2023-04-02T08:57:27.792Z,3
2023-04-02T08:58:25.624Z,3
2023-04-02T08:59:40.514Z,4
2023-04-02T09:00:26.648Z,4
2023-04-02T09:01:26.303Z,5
2023-04-02T09:02:19.533Z,6
2023-04-02T09:03:34.425Z,6
2023-04-02T09:04:20.070Z,6
2023-04-02T09:05:31.079Z,6
2023-04-02T09:06:24.572Z,7
2023-04-02T09:08:16.070Z,7
2023-04-02T09:09:25.125Z,6
2023-04-02T09:10:39.205Z,6
2023-04-02T09:11:23.087Z,6
2023-04-02T09:12:34.285Z,6
2023-04-02T09:14:23.080Z,6
2023-04-02T09:15:35.458Z,7
2023-04-02T09:16:27.834Z,7
2023-04-02T09:17:21.389Z,7
2023-04-02T09:18:27.835Z,8
2023-04-02T09:19:21.379Z,8
2023-04-02T09:20:32.703Z,8
2023-04-02T09:21:25.374Z,8
2023-04-02T09:22:21.927Z,9
2023-04-02T09:23:33.579Z,9
2023-04-02T09:24:25.121Z,10
2023-04-02T09:25:28.848Z,10
2023-04-02T09:26:43.609Z,10
2023-04-02T09:27:38.276Z,10
2023-04-02T09:28:30.041Z,9
2023-04-02T09:29:24.248Z,9
2023-04-02T09:30:35.795Z,8
2023-04-02T09:31:32.279Z,7
2023-04-02T09:32:22.904Z,6
2023-04-02T09:33:48.781Z,6
2023-04-02T09:34:41.097Z,7
2023-04-02T09:35:33.837Z,7
2023-04-02T09:36:29.335Z,7
2023-04-02T09:37:36.097Z,7
2023-04-02T09:38:33.983Z,6
2023-04-02T09:39:25.518Z,6
2023-04-02T09:40:22.987Z,6
2023-04-02T09:41:50.242Z,6
2023-04-02T09:42:29.890Z,7
2023-04-02T09:43:31.863Z,7
2023-04-02T09:44:22.953Z,8
2023-04-02T09:45:40.639Z,9
2023-04-02T09:46:31.513Z,10
2023-04-02T09:47:25.202Z,11
2023-04-02T09:48:34.482Z,12
2023-04-02T09:49:42.665Z,13
2023-04-02T09:50:35.368Z,13
2023-04-02T09:51:22.970Z,13
2023-04-02T09:52:20.721Z,13
2023-04-02T09:53:24.967Z,12
2023-04-02T09:54:28.082Z,11
2023-04-02T09:55:19.648Z,10
2023-04-02T09:56:46.598Z,9
2023-04-02T09:57:37.398Z,8
2023-04-02T09:58:23.276Z,8
2023-04-02T09:59:25.266Z,7
2023-04-02T10:00:39.234Z,7
2023-04-02T10:01:31.481Z,7
2023-04-02T10:02:24.500Z,7
2023-04-02T10:03:53.118Z,7
2023-04-02T10:04:22.634Z,7
2023-04-02T10:05:40.113Z,6
2023-04-02T10:06:30.703Z,6
2023-04-02T10:07:22.435Z,6
2023-04-02T10:08:36.846Z,6
2023-04-02T10:09:21.232Z,5
2023-04-02T10:10:20.234Z,5
2023-04-02T10:11:50.866Z,5
2023-04-02T10:12:30.896Z,4
2023-04-02T10:13:35.007Z,4
2023-04-02T10:14:26.129Z,3
2023-04-02T10:15:38.676Z,3
2023-04-02T10:16:26.491Z,3
2023-04-02T10:17:24.363Z,3
2023-04-02T10:18:44.705Z,4
2023-04-02T10:19:33.284Z,3
2023-04-02T10:20:48.606Z,3
2023-04-02T10:21:25.618Z,3
2023-04-02T10:22:24.603Z,3
2023-04-02T10:23:26.931Z,4
2023-04-02T10:24:30.406Z,4
2023-04-02T10:25:21.779Z,4
2023-04-02T10:26:38.245Z,5
2023-04-02T10:27:22.325Z,5
2023-04-02T10:28:35.633Z,5
2023-04-02T10:29:28.333Z,5
2023-04-02T10:30:21.231Z,5
2023-04-02T10:31:32.966Z,6
2023-04-02T10:32:21.603Z,6
2023-04-02T10:33:34.896Z,6
2023-04-02T10:34:24.866Z,6
2023-04-02T10:35:40.282Z,6
2023-04-02T10:36:33.531Z,6
2023-04-02T10:37:24.274Z,6
2023-04-02T10:39:29.200Z,7
2023-04-02T10:40:23.937Z,7
2023-04-02T10:41:29.890Z,7
2023-04-02T10:42:44.521Z,8
2023-04-02T10:44:32.895Z,9
2023-04-02T10:45:24.806Z,8
2023-04-02T10:46:33.645Z,8
2023-04-02T10:47:26.609Z,9
2023-04-02T10:48:20.280Z,9
2023-04-02T10:49:22.814Z,9
2023-04-02T10:50:40.536Z,9
2023-04-02T10:51:33.475Z,9
2023-04-02T10:53:39.467Z,7
2023-04-02T10:54:30.689Z,6
2023-04-02T10:55:25.900Z,7
2023-04-02T10:56:22.390Z,8
2023-04-02T10:57:45.102Z,10
2023-04-02T10:58:39.242Z,9
2023-04-02T10:59:30.960Z,8
2023-04-02T11:00:23.005Z,7
2023-04-02T11:01:35.922Z,7
2023-04-02T11:02:27.826Z,6
2023-04-02T11:03:22.106Z,6
2023-04-02T11:04:49.098Z,6
2023-04-02T11:05:43.117Z,6
2023-04-02T11:06:26.136Z,6
2023-04-02T11:07:27.349Z,6
2023-04-02T11:08:20.084Z,6
2023-04-02T11:09:31.240Z,6
2023-04-02T11:10:26.995Z,6
2023-04-02T11:11:53.540Z,7
2023-04-02T11:12:32.421Z,8
2023-04-02T11:14:23.671Z,9
2023-04-02T11:15:24.002Z,9
2023-04-02T11:16:38.766Z,10
2023-04-02T11:17:22.407Z,10
2023-04-02T11:18:21.192Z,11
2023-04-02T11:19:52.367Z,11
2023-04-02T11:20:43.576Z,11
2023-04-02T11:21:26.640Z,10
2023-04-02T11:22:28.088Z,8
2023-04-02T11:24:33.203Z,8
2023-04-02T11:25:19.941Z,8
2023-04-02T11:26:55.253Z,8
2023-04-02T11:27:42.246Z,8
2023-04-02T11:28:28.130Z,8
2023-04-02T11:29:34.533Z,8
2023-04-02T11:30:28.040Z,8
2023-04-02T11:31:37.871Z,8
2023-04-02T11:32:23.475Z,8
2023-04-02T11:33:30.073Z,9
2023-04-02T11:34:23.812Z,9
2023-04-02T11:36:38.480Z,11
2023-04-02T11:37:31.056Z,11
2023-04-02T11:38:22.875Z,10
2023-04-02T11:39:35.122Z,11
2023-04-02T11:40:28.654Z,12
2023-04-02T11:41:19.542Z,11
2023-04-02T11:42:34.056Z,10
2023-04-02T11:43:21.987Z,10
2023-04-02T11:44:36.833Z,10
2023-04-02T11:45:22.903Z,10
2023-04-02T11:46:21.695Z,9
2023-04-02T11:47:30.490Z,8
2023-04-02T11:48:24.545Z,8
2023-04-02T11:50:23.866Z,6
2023-04-02T11:51:27.480Z,5
2023-04-02T11:52:33.194Z,4
2023-04-02T11:53:25.633Z,4
2023-04-02T11:54:35.316Z,4
2023-04-02T11:55:27.545Z,4
2023-04-02T11:56:20.328Z,4
2023-04-02T11:57:27.079Z,3
2023-04-02T11:58:45.226Z,3
2023-04-02T12:00:30.566Z,4
2023-04-02T12:01:22.017Z,3
2023-04-02T12:02:22.922Z,3
2023-04-02T12:03:24.906Z,3
2023-04-02T12:04:30.263Z,2
2023-04-02T12:05:47.969Z,2
2023-04-02T12:06:41.720Z,2
2023-04-02T12:07:32.243Z,2
2023-04-02T12:10:28.500Z,3
2023-04-02T12:11:23.103Z,4
2023-04-02T12:12:19.845Z,4
2023-04-02T12:13:19.751Z,4
2023-04-02T12:14:35.430Z,5
2023-04-02T12:15:30.775Z,5
2023-04-02T12:17:34.051Z,6
2023-04-02T12:18:25.313Z,6
2023-04-02T12:19:25.667Z,6
2023-04-02T12:20:40.808Z,6
2023-04-02T12:21:42.551Z,6
2023-04-02T12:22:35.963Z,6
2023-04-02T12:23:26.870Z,6
2023-04-02T12:24:20.263Z,6
2023-04-02T12:25:30.037Z,6
2023-04-02T12:26:23.084Z,6
2023-04-02T12:27:54.332Z,6
2023-04-02T12:28:48.560Z,6
2023-04-02T12:29:35.575Z,6
2023-04-02T12:30:23.544Z,7
2023-04-02T12:31:24.486Z,7
2023-04-02T12:32:33.645Z,7
2023-04-02T12:34:19.625Z,7
2023-04-02T12:35:51.403Z,7
2023-04-02T12:36:28.080Z,7
2023-04-02T12:37:23.856Z,7
2023-04-02T12:38:28.597Z,7
2023-04-02T12:39:24.672Z,8
2023-04-02T12:40:32.363Z,8
2023-04-02T12:41:23.639Z,9
2023-04-02T12:42:33.182Z,8
2023-04-02T12:43:41.707Z,8
2023-04-02T12:44:28.758Z,8
2023-04-02T12:45:33.788Z,7
2023-04-02T12:46:25.877Z,7
2023-04-02T12:47:23.537Z,7
2023-04-02T12:48:22.049Z,6
2023-04-02T12:49:20.736Z,7
2023-04-02T12:50:44.887Z,7
2023-04-02T12:51:31.895Z,7
2023-04-02T12:52:37.403Z,6
2023-04-02T12:53:31.513Z,6
2023-04-02T12:54:24.719Z,6
2023-04-02T12:55:25.126Z,6
2023-04-02T12:56:24.080Z,6
2023-04-02T12:57:47.816Z,6
2023-04-02T12:58:23.011Z,6
2023-04-02T12:59:20.651Z,7
2023-04-02T13:00:36.954Z,8
2023-04-02T13:01:28.470Z,8
2023-04-02T13:02:20.030Z,8
2023-04-02T13:03:29.177Z,8
2023-04-02T13:04:22.235Z,7
2023-04-02T13:05:40.441Z,8
2023-04-02T13:06:24.865Z,8
2023-04-02T13:07:39.125Z,8
2023-04-02T13:08:33.099Z,8
2023-04-02T13:09:27.413Z,8
2023-04-02T13:10:31.989Z,8
2023-04-02T13:11:25.555Z,7
2023-04-02T13:12:38.859Z,8
2023-04-02T13:13:25.981Z,8
2023-04-02T13:14:43.922Z,8
2023-04-02T13:15:24.145Z,8
2023-04-02T13:16:30.464Z,9
2023-04-02T13:17:23.003Z,9
2023-04-02T13:18:29.575Z,9
2023-04-02T13:19:23.133Z,10
2023-04-02T13:20:29.410Z,10
2023-04-02T13:21:29.708Z,9
2023-04-02T13:22:43.029Z,9
2023-04-02T13:23:33.537Z,8
2023-04-02T13:26:20.428Z,8
2023-04-02T13:27:20.858Z,8
2023-04-02T13:28:47.627Z,8
2023-04-02T13:29:45.420Z,8
2023-04-02T13:30:41.760Z,7
2023-04-02T13:31:30.049Z,7
2023-04-02T13:32:26.688Z,8
2023-04-02T13:33:30.533Z,8
2023-04-02T13:34:24.571Z,9
2023-04-02T13:35:22.922Z,8
2023-04-02T13:36:50.190Z,8
2023-04-02T13:38:31.165Z,7
2023-04-02T13:39:26.777Z,6
2023-04-02T13:40:20.016Z,7
2023-04-02T13:41:27.046Z,7
2023-04-02T13:42:20.495Z,7
2023-04-02T13:43:53.096Z,7
2023-04-02T13:45:34.444Z,6
2023-04-02T13:46:21.180Z,5
2023-04-02T13:47:24.985Z,5
2023-04-02T13:48:31.765Z,5
2023-04-02T13:49:28.183Z,5
2023-04-02T13:50:41.097Z,5
2023-04-02T13:51:50.755Z,5
2023-04-02T13:52:39.031Z,5
2023-04-02T13:53:23.343Z,5
2023-04-02T13:54:27.976Z,5
2023-04-02T13:55:23.558Z,5
2023-04-02T13:56:31.389Z,5
2023-04-02T13:58:54.500Z,5
2023-04-02T13:59:40.638Z,5
2023-04-02T14:00:27.894Z,5
2023-04-02T14:01:32.631Z,5
2023-04-02T14:02:27.473Z,5
2023-04-02T14:03:34.049Z,5
2023-04-02T14:04:21.932Z,5
2023-04-02T14:05:59.311Z,5
2023-04-02T14:06:30.360Z,5
2023-04-02T14:07:28.936Z,5
2023-04-02T14:08:37.497Z,5
2023-04-02T14:09:31.867Z,5
2023-04-02T14:10:23.632Z,5
2023-04-02T14:11:20.960Z,5
2023-04-02T14:12:22.231Z,5
2023-04-02T14:13:48.358Z,5
2023-04-02T14:14:33.671Z,6
2023-04-02T14:15:40.901Z,6
2023-04-02T14:16:35.161Z,6
2023-04-02T14:17:28.245Z,6
2023-04-02T14:18:20.861Z,6
2023-04-02T14:19:26.760Z,6
2023-04-02T14:20:19.965Z,5
2023-04-02T14:21:36.907Z,5
2023-04-02T14:22:22.053Z,5
2023-04-02T14:23:32.723Z,5
2023-04-02T14:24:33.122Z,5
2023-04-02T14:25:25.735Z,6
2023-04-02T14:26:32.001Z,6
2023-04-02T14:27:23.416Z,7
2023-04-02T14:29:25.604Z,7
2023-04-02T14:30:43.527Z,8
2023-04-02T14:31:36.874Z,8
2023-04-02T14:32:29.729Z,8
2023-04-02T14:33:21.121Z,8
2023-04-02T14:34:27.805Z,9
2023-04-02T14:35:20.466Z,11
2023-04-02T14:36:28.807Z,11
2023-04-02T14:37:48.556Z,12
2023-04-02T14:38:41.686Z,13
2023-04-02T14:39:34.504Z,20
2023-04-02T14:40:27.151Z,17
2023-04-02T14:41:31.524Z,17
2023-04-02T14:42:26.057Z,17
2023-04-02T14:43:32.310Z,15
2023-04-02T14:44:52.142Z,15
2023-04-02T14:46:40.365Z,13
2023-04-02T14:47:31.274Z,13
2023-04-02T14:48:22.904Z,13
2023-04-02T14:49:28.315Z,11
2023-04-02T14:51:21.826Z,13
2023-04-02T14:52:44.242Z,11
2023-04-02T14:53:43.991Z,10
2023-04-02T14:54:31.116Z,9
2023-04-02T14:55:26.890Z,8
2023-04-02T14:56:22.005Z,8
2023-04-02T14:57:25.777Z,7
2023-04-02T14:58:23.871Z,6
2023-04-02T14:59:53.626Z,5
2023-04-02T15:00:46.605Z,5
2023-04-02T15:02:26.304Z,5
2023-04-02T15:03:24.466Z,5
2023-04-02T15:04:29.404Z,5
2023-04-02T15:05:21.869Z,5
2023-04-02T15:06:56.350Z,5
2023-04-02T15:07:51.580Z,4
2023-04-02T15:08:32.514Z,4
2023-04-02T15:09:23.470Z,4
2023-04-02T15:10:28.404Z,4
2023-04-02T15:11:22.139Z,4
2023-04-02T15:12:26.172Z,5
2023-04-02T15:14:02.411Z,5
2023-04-02T15:14:40.063Z,6
2023-04-02T15:15:49.030Z,6
2023-04-02T15:16:26.681Z,7
2023-04-02T15:17:32.547Z,7
2023-04-02T15:18:25.284Z,8
2023-04-02T15:19:32.961Z,8
2023-04-02T15:20:23.087Z,8
2023-04-02T15:21:59.067Z,8
2023-04-02T15:23:30.107Z,8
2023-04-02T15:24:20.128Z,8
2023-04-02T15:25:30.890Z,7
2023-04-02T15:26:24.517Z,7
2023-04-02T15:27:25.612Z,6
2023-04-02T15:28:20.220Z,6
2023-04-02T15:29:56.353Z,5
2023-04-02T15:30:49.671Z,4
2023-04-02T15:31:42.311Z,4
2023-04-02T15:33:28.567Z,3
2023-04-02T15:34:20.232Z,3
2023-04-02T15:35:24.767Z,3
2023-04-02T15:36:30.848Z,3
2023-04-02T15:37:45.502Z,3
2023-04-02T15:38:46.052Z,3
2023-04-02T15:39:49.471Z,3
2023-04-02T15:40:33.071Z,3
2023-04-02T15:42:28.270Z,3
2023-04-02T15:43:20.961Z,3
2023-04-02T15:44:58.101Z,3
2023-04-02T15:45:51.278Z,3
2023-04-02T15:46:45.153Z,2
2023-04-02T15:47:37.152Z,2
2023-04-02T15:48:29.673Z,2
2023-04-02T15:50:26.586Z,2
2023-04-02T15:52:19.341Z,2
2023-04-02T15:53:33.593Z,2
2023-04-02T15:54:41.675Z,2
2023-04-02T15:55:34.614Z,2
2023-04-02T15:56:28.029Z,2
2023-04-02T15:57:29.649Z,2
2023-04-02T15:58:24.600Z,2
2023-04-02T15:59:40.186Z,2
2023-04-02T16:00:52.373Z,2
2023-04-02T16:01:46.019Z,2
2023-04-02T16:02:41.475Z,2
2023-04-02T16:03:29.818Z,2
2023-04-02T16:04:24.161Z,2
2023-04-02T16:05:26.777Z,2
2023-04-02T16:06:56.857Z,2
2023-04-02T16:07:56.087Z,2
2023-04-02T16:08:48.913Z,2
2023-04-02T16:09:23.011Z,2
2023-04-02T16:10:42.014Z,3
2023-04-02T16:11:28.003Z,3
2023-04-02T16:12:22.689Z,3
2023-04-02T16:13:23.386Z,3
2023-04-02T16:15:00.597Z,3
2023-04-02T16:15:26.406Z,3
2023-04-02T16:16:40.892Z,3
2023-04-02T16:17:39.424Z,3
2023-04-02T16:18:32.996Z,3
2023-04-02T16:19:24.202Z,3
2023-04-02T16:20:27.127Z,3
2023-04-02T16:22:59.496Z,3
2023-04-02T16:23:50.846Z,3
2023-04-02T16:25:39.103Z,3
2023-04-02T16:26:24.402Z,3
2023-04-02T16:27:23.563Z,3